aviador You're here:

LKPD Decoded Metar

PARDUBICE in CZECH REPUBLIC
Report Time2018-01-18 01:00:00
UTC Time2018-01-18 01:49:15
Flight Rules vfr VFR
Wind270° at 09 kt
W.Decomp.*RWY 27: 9.0 kt HW 0.5 kt LCW
W.Rank270° ranks 1
Current wind is above 270° avg. (7.5)
Visibility9999 m
Phenomena:N/A
Clouds:Broken 036 Hf
Broken 050 Hf
Expected CloudBase > 400 ft AGL from Temp-Dew spread
Ceiling3,600 ft
Temp01°C (ISA -13)
Dew Point00°C (93% RH)
AAT-4.2°C
QNH1006 hPa
Density Alt-459 ft
Elevation741 ft
Report Wrong Elevation
Raw Report
LKPD 180100Z 27009KT 9999 BKN036 BKN050 01/M00 Q1006 RMK BLU=

Extra information for LKPD:More info

Metar Taf Metar & Taf Last 4 Metars F.Rules Stats Wind Profile Meteogram Temp Stats Airport Information Weather charts Add Link Nearby VenuesMetar ALERT Operation Metar Decoded Social comments